createdAt,value
2018-10-11T00:00:08.938Z,21.60
2018-10-11T00:00:48.558Z,19.30
2018-10-11T00:01:27.848Z,19.60
2018-10-11T00:02:06.105Z,21.10
2018-10-11T00:02:45.326Z,20.80
2018-10-11T00:03:25.214Z,19.20
2018-10-11T00:04:03.063Z,28.17
2018-10-11T00:04:41.148Z,22.13
2018-10-11T00:05:18.993Z,23.27
2018-10-11T00:05:58.803Z,26.47
2018-10-11T00:06:37.688Z,21.97
2018-10-11T00:07:15.633Z,21.03
2018-10-11T00:07:53.484Z,23.83
2018-10-11T00:08:31.292Z,21.97
2018-10-11T00:09:11.464Z,24.10
2018-10-11T00:09:50.460Z,20.50
2018-10-11T00:10:28.673Z,26.10
2018-10-11T00:11:06.515Z,20.97
2018-10-11T00:11:45.958Z,25.37
2018-10-11T00:12:25.653Z,20.20
2018-10-11T00:13:04.918Z,20.23
2018-10-11T00:13:43.250Z,21.53
2018-10-11T00:14:22.199Z,20.77
2018-10-11T00:15:00.117Z,35.93
2018-10-11T00:15:39.350Z,20.53
2018-10-11T00:16:17.181Z,35.73
2018-10-11T00:16:55.052Z,20.40
2018-10-11T00:17:32.899Z,24.50
2018-10-11T00:18:10.803Z,23.93
2018-10-11T00:18:48.669Z,21.53
2018-10-11T00:19:26.565Z,28.63
2018-10-11T00:20:04.533Z,33.07
2018-10-11T00:20:42.533Z,33.73
2018-10-11T00:21:20.344Z,22.00
2018-10-11T00:21:58.213Z,21.07
2018-10-11T00:22:36.214Z,23.93
2018-10-11T00:23:14.152Z,21.43
2018-10-11T00:23:52.368Z,21.83
2018-10-11T00:24:30.284Z,20.50
2018-10-11T00:25:08.261Z,25.53
2018-10-11T00:25:46.253Z,20.20
2018-10-11T00:26:24.229Z,22.00
2018-10-11T00:27:02.126Z,21.73
2018-10-11T00:27:39.984Z,20.20
2018-10-11T00:28:17.921Z,23.30
2018-10-11T00:28:55.841Z,19.00
2018-10-11T00:29:33.800Z,18.93
2018-10-11T00:30:11.872Z,17.97
2018-10-11T00:30:49.926Z,27.50
2018-10-11T00:31:27.953Z,19.47
2018-10-11T00:32:05.877Z,18.47
2018-10-11T00:32:44.053Z,16.73
2018-10-11T00:33:21.917Z,17.40
2018-10-11T00:33:59.764Z,18.23
2018-10-11T00:34:37.626Z,19.33
2018-10-11T00:35:15.793Z,21.93
2018-10-11T00:35:54.791Z,20.30
2018-10-11T00:36:32.674Z,19.27
2018-10-11T00:37:10.813Z,17.93
2018-10-11T00:37:48.709Z,16.80
2018-10-11T00:38:26.575Z,17.30
2018-10-11T00:39:04.789Z,16.30
2018-10-11T00:39:42.946Z,26.77
2018-10-11T00:40:20.829Z,18.50
2018-10-11T00:40:58.769Z,17.37
2018-10-11T00:41:36.738Z,18.77
2018-10-11T00:42:15.868Z,19.70
2018-10-11T00:42:53.718Z,20.50
2018-10-11T00:43:31.606Z,16.53
2018-10-11T00:44:09.674Z,17.77
2018-10-11T00:44:48.097Z,24.13
2018-10-11T00:45:26.115Z,20.93
2018-10-11T00:46:04.346Z,19.07
2018-10-11T00:46:42.286Z,26.83
2018-10-11T00:47:20.190Z,16.70
2018-10-11T00:47:58.045Z,14.97
2018-10-11T00:48:35.964Z,18.70
2018-10-11T00:49:14.692Z,28.67
2018-10-11T00:49:52.652Z,17.43
2018-10-11T00:50:30.528Z,16.27
2018-10-11T00:51:08.453Z,16.13
2018-10-11T00:51:46.315Z,20.30
2018-10-11T00:52:24.458Z,16.70
2018-10-11T00:53:02.534Z,22.07
2018-10-11T00:53:40.481Z,19.77
2018-10-11T00:54:18.526Z,17.43
2018-10-11T00:54:56.562Z,16.37
2018-10-11T00:55:34.490Z,17.67
2018-10-11T00:56:12.463Z,15.33
2018-10-11T00:56:50.514Z,28.70
2018-10-11T00:57:29.137Z,15.77
2018-10-11T00:58:07.528Z,16.60
2018-10-11T00:58:45.870Z,16.33
2018-10-11T00:59:24.234Z,21.43
2018-10-11T01:00:03.244Z,18.07
2018-10-11T01:00:41.694Z,17.27
2018-10-11T01:01:20.451Z,16.53
2018-10-11T01:01:59.162Z,18.10
2018-10-11T01:02:38.492Z,19.30
2018-10-11T01:03:17.195Z,20.93
2018-10-11T01:03:55.608Z,17.73
2018-10-11T01:04:34.263Z,19.70
2018-10-11T01:05:12.931Z,15.90
2018-10-11T01:05:51.719Z,15.80
2018-10-11T01:06:30.831Z,22.63
2018-10-11T01:07:09.330Z,15.03
2018-10-11T01:07:48.371Z,17.23
2018-10-11T01:08:27.366Z,16.83
2018-10-11T01:09:06.742Z,23.37
2018-10-11T01:09:45.183Z,21.07
2018-10-11T01:10:23.992Z,16.17
2018-10-11T01:11:02.521Z,15.87
2018-10-11T01:11:41.453Z,26.67
2018-10-11T01:12:20.122Z,16.90
2018-10-11T01:12:58.817Z,16.23
2018-10-11T01:13:37.643Z,16.27
2018-10-11T01:17:17.709Z,14.93
2018-10-11T01:17:56.329Z,17.53
2018-10-11T01:18:35.238Z,15.40
2018-10-11T01:19:14.048Z,16.03
2018-10-11T01:19:52.764Z,16.77
2018-10-11T01:20:31.332Z,16.63
2018-10-11T01:21:10.663Z,20.47
2018-10-11T01:21:48.994Z,23.63
2018-10-11T01:22:27.671Z,26.40
2018-10-11T01:23:06.160Z,18.10
2018-10-11T01:23:44.607Z,18.43
2018-10-11T01:24:22.933Z,22.30
2018-10-11T01:25:01.779Z,18.00
2018-10-11T01:25:40.273Z,24.67
2018-10-11T01:26:18.677Z,24.97
2018-10-11T01:26:56.897Z,26.00
2018-10-11T01:27:35.269Z,17.67
2018-10-11T01:28:14.318Z,17.60
2018-10-11T01:28:52.258Z,17.07
2018-10-11T01:29:30.244Z,17.30
2018-10-11T01:30:08.907Z,22.40
2018-10-11T01:30:51.014Z,25.17
2018-10-11T01:31:29.510Z,18.13
2018-10-11T01:32:07.426Z,16.60
2018-10-11T01:32:45.473Z,24.73
2018-10-11T01:33:23.545Z,17.60
2018-10-11T01:34:01.860Z,20.57
2018-10-11T01:34:39.805Z,21.10
2018-10-11T01:35:17.709Z,20.80
2018-10-11T01:35:55.633Z,16.73
2018-10-11T01:36:33.548Z,21.83
2018-10-11T01:37:11.689Z,31.33
2018-10-11T01:37:49.760Z,19.60
2018-10-11T01:38:28.132Z,22.93
2018-10-11T01:39:07.049Z,16.27
2018-10-11T01:39:45.168Z,20.60
2018-10-11T01:40:23.078Z,18.63
2018-10-11T01:41:01.079Z,15.77
2018-10-11T01:41:39.352Z,16.97
2018-10-11T01:42:17.382Z,20.87
2018-10-11T01:43:04.997Z,22.50
2018-10-11T01:43:43.522Z,17.77
2018-10-11T01:44:21.473Z,17.43
2018-10-11T01:44:59.546Z,20.83
2018-10-11T01:45:37.818Z,17.67
2018-10-11T01:46:16.674Z,17.37
2018-10-11T01:46:54.492Z,17.70
2018-10-11T01:47:32.389Z,19.97
2018-10-11T01:48:10.505Z,25.70
2018-10-11T01:48:48.404Z,19.03
2018-10-11T01:49:26.308Z,21.20
2018-10-11T01:50:04.139Z,18.07
2018-10-11T01:50:41.985Z,19.83
2018-10-11T01:51:20.725Z,18.30
2018-10-11T01:51:58.689Z,20.63
2018-10-11T01:52:36.738Z,18.77
2018-10-11T01:53:14.896Z,17.40
2018-10-11T01:53:53.143Z,18.37
2018-10-11T01:54:31.112Z,19.40
2018-10-11T01:55:09.680Z,17.80
2018-10-11T01:55:47.719Z,19.87
2018-10-11T01:56:25.742Z,20.67
2018-10-11T01:57:03.604Z,16.97
2018-10-11T01:57:41.484Z,16.97
2018-10-11T01:58:19.441Z,23.43
2018-10-11T01:58:57.350Z,16.13
2018-10-11T01:59:35.326Z,16.13
2018-10-11T02:00:13.285Z,16.03
2018-10-11T02:00:51.384Z,17.20
2018-10-11T02:01:29.273Z,23.20
2018-10-11T02:02:07.243Z,16.27
2018-10-11T02:02:45.173Z,19.73
2018-10-11T02:03:23.517Z,16.93
2018-10-11T02:04:02.992Z,17.07
2018-10-11T02:04:41.168Z,16.47
2018-10-11T02:05:19.237Z,17.53
2018-10-11T02:05:57.179Z,28.07
2018-10-11T02:06:35.142Z,18.43
2018-10-11T02:07:13.073Z,17.10
2018-10-11T02:07:51.065Z,18.80
2018-10-11T02:08:28.989Z,16.20
2018-10-11T02:09:06.898Z,16.63
2018-10-11T02:09:45.049Z,24.40
2018-10-11T02:10:22.955Z,16.23
2018-10-11T02:11:00.851Z,15.30
2018-10-11T02:11:38.883Z,18.33
2018-10-11T02:12:16.749Z,16.63
2018-10-11T02:12:54.881Z,19.73
2018-10-11T02:13:32.789Z,18.07
2018-10-11T02:14:10.756Z,19.03
2018-10-11T02:14:48.698Z,19.83
2018-10-11T02:15:27.107Z,24.47
2018-10-11T02:16:05.206Z,21.53
2018-10-11T02:16:43.363Z,15.47
2018-10-11T02:17:21.233Z,16.77
2018-10-11T02:17:59.896Z,16.30
2018-10-11T02:18:38.105Z,17.03
2018-10-11T02:19:16.595Z,15.23
2018-10-11T02:19:54.559Z,24.60
2018-10-11T02:20:32.537Z,15.93
2018-10-11T02:21:11.101Z,15.27
2018-10-11T02:21:48.970Z,16.20
2018-10-11T02:22:27.009Z,23.97
2018-10-11T02:23:04.995Z,17.03
2018-10-11T02:23:43.033Z,17.80
2018-10-11T02:24:20.857Z,15.30
2018-10-11T02:24:58.905Z,17.30
2018-10-11T02:25:36.756Z,18.40
2018-10-11T02:26:14.862Z,14.27
2018-10-11T02:26:52.925Z,15.57
2018-10-11T02:27:30.780Z,18.90
2018-10-11T02:28:08.996Z,15.63
2018-10-11T02:28:46.981Z,15.93
2018-10-11T02:29:25.819Z,15.90
2018-10-11T02:30:03.791Z,14.33
2018-10-11T02:30:41.715Z,16.13
2018-10-11T02:31:19.704Z,16.57
2018-10-11T02:31:57.688Z,14.37
2018-10-11T02:32:35.603Z,15.23
2018-10-11T02:33:13.755Z,15.30
2018-10-11T02:33:51.721Z,28.30
2018-10-11T02:34:29.803Z,16.50
2018-10-11T02:35:07.960Z,15.63
2018-10-11T02:35:45.891Z,15.40
2018-10-11T02:36:25.154Z,15.50
2018-10-11T02:37:03.026Z,14.57
2018-10-11T02:37:41.061Z,14.70
2018-10-11T02:38:18.974Z,20.50
2018-10-11T02:38:56.821Z,13.80
2018-10-11T02:39:34.778Z,14.60
2018-10-11T02:40:12.799Z,15.80
2018-10-11T02:40:50.668Z,14.27
2018-10-11T02:41:28.872Z,16.23
2018-10-11T02:42:07.521Z,15.03
2018-10-11T02:42:45.495Z,19.00
2018-10-11T02:43:23.422Z,15.73
2018-10-11T02:44:01.552Z,15.40
2018-10-11T02:44:39.431Z,15.83
2018-10-11T02:45:17.342Z,16.00
2018-10-11T02:45:55.262Z,17.17
2018-10-11T02:46:33.061Z,14.50
2018-10-11T02:47:11.355Z,15.90
2018-10-11T02:47:49.258Z,14.80
2018-10-11T02:48:27.222Z,15.60
2018-10-11T02:49:05.276Z,14.53
2018-10-11T02:49:43.772Z,16.50
2018-10-11T02:50:21.696Z,16.97
2018-10-11T02:50:59.700Z,14.90
2018-10-11T02:51:37.892Z,15.03
2018-10-11T02:52:16.670Z,18.25
2018-10-11T02:52:54.833Z,26.37
2018-10-11T02:53:32.913Z,16.20
2018-10-11T02:54:12.077Z,13.63
2018-10-11T02:54:49.938Z,20.13
2018-10-11T02:55:29.761Z,17.60
2018-10-11T02:56:09.141Z,14.33
2018-10-11T02:56:47.346Z,16.73
2018-10-11T02:57:34.057Z,14.13
2018-10-11T02:58:20.956Z,15.97
2018-10-11T02:59:23.095Z,24.80
2018-10-11T03:00:02.499Z,16.37
2018-10-11T03:00:40.935Z,14.37
2018-10-11T03:01:19.162Z,15.13
2018-10-11T03:01:57.729Z,18.43
2018-10-11T03:02:36.098Z,20.60
2018-10-11T03:03:17.625Z,13.73
2018-10-11T03:04:00.941Z,18.50
2018-10-11T03:04:39.873Z,16.27
2018-10-11T03:05:21.046Z,14.47
2018-10-11T03:06:03.652Z,17.90
2018-10-11T03:06:42.106Z,15.77
2018-10-11T03:07:20.308Z,14.00
2018-10-11T03:07:58.429Z,13.50
2018-10-11T03:08:36.959Z,19.23
2018-10-11T03:09:15.204Z,17.40
2018-10-11T03:09:53.441Z,15.10
2018-10-11T03:10:31.444Z,14.73
2018-10-11T03:11:09.397Z,16.77
2018-10-11T03:11:47.488Z,15.23
2018-10-11T03:12:25.428Z,14.30
2018-10-11T03:13:03.252Z,13.37
2018-10-11T03:13:41.141Z,19.10
2018-10-11T03:14:19.023Z,14.23
2018-10-11T03:14:57.242Z,14.50
2018-10-11T03:15:35.084Z,14.13
2018-10-11T03:16:13.020Z,13.77
2018-10-11T03:16:50.969Z,14.70
2018-10-11T03:17:29.061Z,15.67
2018-10-11T03:18:07.142Z,14.33
2018-10-11T03:18:45.089Z,13.83
2018-10-11T03:19:23.350Z,13.53
2018-10-11T03:20:01.218Z,16.90
2018-10-11T03:20:39.089Z,13.87
2018-10-11T03:21:17.063Z,16.00
2018-10-11T03:21:54.989Z,13.47
2018-10-11T03:22:34.277Z,18.57
2018-10-11T03:23:13.502Z,15.23
2018-10-11T03:23:51.764Z,14.10
2018-10-11T03:24:29.805Z,13.90
2018-10-11T03:25:07.981Z,13.90
2018-10-11T03:25:46.987Z,14.87
2018-10-11T03:26:25.063Z,15.30
2018-10-11T03:27:03.291Z,14.83
2018-10-11T03:27:41.167Z,19.53
2018-10-11T03:28:19.914Z,16.43
2018-10-11T03:28:57.758Z,14.83
2018-10-11T03:29:35.628Z,13.50
2018-10-11T03:30:13.628Z,12.80
2018-10-11T03:30:51.711Z,14.20
2018-10-11T03:31:30.076Z,16.50
2018-10-11T03:32:08.061Z,14.33
2018-10-11T03:32:46.168Z,12.17
2018-10-11T03:33:24.179Z,12.40
2018-10-11T03:34:02.097Z,17.33
2018-10-11T03:34:40.103Z,11.77
2018-10-11T03:35:17.981Z,15.53
2018-10-11T03:35:55.921Z,13.40
2018-10-11T03:36:33.850Z,13.60
2018-10-11T03:37:11.741Z,13.27
2018-10-11T03:37:49.492Z,16.50
2018-10-11T03:38:27.886Z,13.10
2018-10-11T03:39:48.895Z,16.40
2018-10-11T03:40:26.883Z,12.87
2018-10-11T03:41:04.749Z,15.30
2018-10-11T03:41:42.596Z,13.60
2018-10-11T03:42:20.492Z,15.43
2018-10-11T03:42:59.354Z,13.13
2018-10-11T03:43:37.272Z,13.33
2018-10-11T03:44:16.518Z,12.87
2018-10-11T03:44:55.937Z,11.20
2018-10-11T03:45:33.982Z,11.73
2018-10-11T03:46:11.976Z,14.03
2018-10-11T03:46:49.957Z,12.13
2018-10-11T03:47:28.152Z,14.40
2018-10-11T03:48:06.612Z,11.00
2018-10-11T03:48:44.508Z,11.77
2018-10-11T03:49:22.447Z,11.87
2018-10-11T03:50:00.633Z,12.03
2018-10-11T03:50:38.425Z,11.60
2018-10-11T03:51:16.482Z,15.13
2018-10-11T03:51:54.390Z,11.70
2018-10-11T03:52:35.970Z,13.77
2018-10-11T03:53:13.937Z,11.80
2018-10-11T03:53:51.892Z,11.27
2018-10-11T03:54:30.172Z,11.20
2018-10-11T03:55:08.184Z,11.90
2018-10-11T03:55:46.014Z,11.40
2018-10-11T03:56:24.501Z,12.00
2018-10-11T03:57:02.326Z,10.33
2018-10-11T03:57:40.775Z,11.93
2018-10-11T03:58:18.733Z,12.70
2018-10-11T03:58:57.286Z,11.53
2018-10-11T03:59:35.145Z,10.50
2018-10-11T04:00:13.085Z,10.33
2018-10-11T04:00:50.991Z,11.00
2018-10-11T04:01:29.073Z,11.30
2018-10-11T04:02:07.108Z,11.27
2018-10-11T04:02:48.752Z,13.33
2018-10-11T04:03:26.775Z,11.83
2018-10-11T04:04:04.648Z,14.37
2018-10-11T04:04:42.581Z,13.27
2018-10-11T04:05:20.509Z,11.37
2018-10-11T04:05:58.276Z,9.83
2018-10-11T04:06:36.416Z,12.33
2018-10-11T04:07:14.727Z,12.10
2018-10-11T04:07:52.673Z,10.90
2018-10-11T04:08:30.579Z,11.90
2018-10-11T04:09:09.431Z,14.43
2018-10-11T04:09:47.404Z,11.83
2018-10-11T04:10:25.258Z,11.53
2018-10-11T04:11:03.659Z,12.43
2018-10-11T04:11:41.564Z,11.53
2018-10-11T04:12:19.555Z,12.33
2018-10-11T04:12:57.486Z,11.80
2018-10-11T04:13:35.359Z,17.73
2018-10-11T04:14:13.285Z,12.40
2018-10-11T04:14:52.990Z,12.73
2018-10-11T04:15:31.142Z,14.07
2018-10-11T04:16:09.121Z,12.27
2018-10-11T04:16:47.197Z,12.73
2018-10-11T04:17:25.145Z,12.97
2018-10-11T04:18:03.006Z,13.20
2018-10-11T04:18:41.044Z,12.93
2018-10-11T04:19:19.429Z,13.23
2018-10-11T04:19:57.239Z,13.00
2018-10-11T04:20:35.056Z,13.30
2018-10-11T04:21:13.617Z,13.77
2018-10-11T04:21:51.695Z,13.93
2018-10-11T04:22:29.646Z,13.13
2018-10-11T04:23:07.780Z,13.90
2018-10-11T04:23:45.656Z,15.00
2018-10-11T04:24:23.519Z,15.80
2018-10-11T04:25:01.593Z,12.40
2018-10-11T04:25:39.631Z,12.20
2018-10-11T04:26:17.832Z,12.60
2018-10-11T04:26:55.667Z,12.50
2018-10-11T04:27:33.478Z,11.80
2018-10-11T04:28:11.568Z,12.83
2018-10-11T04:28:49.541Z,11.97
2018-10-11T04:29:27.908Z,13.40
2018-10-11T04:30:05.779Z,13.17
2018-10-11T04:30:44.351Z,13.60
2018-10-11T04:31:22.246Z,14.37
2018-10-11T04:32:00.256Z,13.07
2018-10-11T04:32:38.223Z,15.90
2018-10-11T04:33:16.028Z,12.57
2018-10-11T04:33:54.069Z,12.87
2018-10-11T04:34:31.983Z,13.83
2018-10-11T04:35:10.026Z,13.00
2018-10-11T04:35:47.822Z,12.73
2018-10-11T04:36:25.756Z,14.93
2018-10-11T04:37:03.712Z,11.07
2018-10-11T04:37:41.950Z,13.90
2018-10-11T04:38:19.977Z,12.83
2018-10-11T04:38:58.102Z,12.97
2018-10-11T04:39:36.002Z,17.47
2018-10-11T04:40:14.802Z,12.90
2018-10-11T04:40:52.749Z,12.60
2018-10-11T04:43:09.356Z,12.90
2018-10-11T04:43:47.314Z,11.87
2018-10-11T04:44:25.633Z,12.07
2018-10-11T04:45:03.561Z,12.77
2018-10-11T04:45:41.689Z,12.57
2018-10-11T04:46:19.641Z,12.40
2018-10-11T04:46:57.567Z,12.70
2018-10-11T04:47:35.484Z,11.80
2018-10-11T04:48:13.725Z,17.20
2018-10-11T04:48:51.604Z,14.93
2018-10-11T04:49:29.623Z,13.50
2018-10-11T04:50:07.518Z,13.37
2018-10-11T04:50:46.443Z,14.60
2018-10-11T04:51:24.384Z,13.27
2018-10-11T04:52:02.243Z,13.37
2018-10-11T04:52:40.181Z,13.00
2018-10-11T04:53:18.248Z,14.23
2018-10-11T04:53:57.103Z,12.90
2018-10-11T04:54:35.083Z,16.03
2018-10-11T04:55:13.038Z,13.03
2018-10-11T04:55:50.884Z,13.73
2018-10-11T04:56:30.667Z,12.97
2018-10-11T04:57:08.583Z,14.00
2018-10-11T04:57:46.680Z,13.00
2018-10-11T04:58:24.481Z,12.90
2018-10-11T04:59:02.466Z,15.97
2018-10-11T04:59:40.514Z,18.53
2018-10-11T05:00:18.589Z,14.43
2018-10-11T05:00:57.365Z,15.33
2018-10-11T05:01:35.393Z,15.23
2018-10-11T05:02:13.341Z,15.10
2018-10-11T05:02:51.273Z,16.53
2018-10-11T05:03:33.073Z,14.80
2018-10-11T05:04:11.488Z,16.43
2018-10-11T05:04:49.354Z,16.30
2018-10-11T05:05:27.436Z,18.13
2018-10-11T05:06:05.499Z,14.57
2018-10-11T05:06:43.545Z,16.57
2018-10-11T05:07:21.541Z,17.33
2018-10-11T05:07:59.588Z,16.60
2018-10-11T05:08:38.152Z,17.57
2018-10-11T05:09:16.327Z,19.97
2018-10-11T05:09:54.234Z,15.57
2018-10-11T05:10:32.176Z,17.70
2018-10-11T05:11:10.195Z,15.60
2018-10-11T05:11:48.299Z,18.57
2018-10-11T05:12:26.303Z,18.57
2018-10-11T05:13:04.808Z,15.33
2018-10-11T05:13:50.736Z,14.83
2018-10-11T05:14:28.804Z,22.17
2018-10-11T05:15:07.105Z,18.80
2018-10-11T05:15:46.545Z,15.47
2018-10-11T05:16:24.561Z,14.37
2018-10-11T05:17:03.076Z,15.50
2018-10-11T05:17:41.114Z,14.40
2018-10-11T05:18:23.002Z,17.63
2018-10-11T05:19:04.797Z,15.40
2018-10-11T05:19:43.430Z,14.20
2018-10-11T05:20:21.307Z,14.73
2018-10-11T05:20:59.138Z,14.50
2018-10-11T05:21:37.171Z,13.97
2018-10-11T05:25:16.781Z,12.47
2018-10-11T05:25:54.753Z,13.43
2018-10-11T05:26:32.911Z,14.93
2018-10-11T05:27:11.001Z,13.97
2018-10-11T05:27:49.075Z,13.87
2018-10-11T05:28:27.312Z,14.10
2018-10-11T05:29:05.151Z,13.60
2018-10-11T05:29:43.262Z,14.20
2018-10-11T05:30:21.263Z,15.30
2018-10-11T05:30:59.288Z,13.63
2018-10-11T05:31:37.356Z,14.23
2018-10-11T05:32:15.734Z,14.40
2018-10-11T05:32:54.796Z,13.93
2018-10-11T05:33:33.321Z,15.97
2018-10-11T05:34:11.632Z,14.20
2018-10-11T05:34:49.466Z,14.97
2018-10-11T05:35:27.350Z,14.83
2018-10-11T05:36:05.245Z,14.53
2018-10-11T05:36:43.211Z,15.10
2018-10-11T05:37:21.039Z,13.90
2018-10-11T05:37:59.190Z,14.70
2018-10-11T05:38:37.139Z,14.03
2018-10-11T05:39:15.047Z,15.50
2018-10-11T05:39:53.037Z,13.80
2018-10-11T05:40:31.049Z,21.70
2018-10-11T05:41:09.456Z,16.87
2018-10-11T05:41:47.568Z,15.40
2018-10-11T05:42:25.850Z,15.80
2018-10-11T05:43:04.377Z,16.70
2018-10-11T05:43:42.742Z,16.80
2018-10-11T05:44:21.321Z,14.73
2018-10-11T05:45:09.853Z,17.53
2018-10-11T05:45:53.968Z,20.17
2018-10-11T05:46:34.472Z,16.03
2018-10-11T05:47:12.599Z,16.17
2018-10-11T05:47:50.818Z,15.30
2018-10-11T05:48:29.477Z,14.30
2018-10-11T05:49:08.898Z,15.60
2018-10-11T05:49:47.012Z,26.20
2018-10-11T05:50:25.295Z,15.17
2018-10-11T05:51:04.157Z,16.27
2018-10-11T05:51:42.116Z,19.57
2018-10-11T05:52:20.369Z,12.07
2018-10-11T05:52:58.496Z,12.13
2018-10-11T05:53:36.934Z,13.57
2018-10-11T05:54:15.272Z,11.57
2018-10-11T05:54:53.217Z,13.27
2018-10-11T05:55:31.367Z,13.87
2018-10-11T05:56:09.515Z,11.33
2018-10-11T05:56:49.076Z,11.90
2018-10-11T05:57:27.296Z,18.90
2018-10-11T05:58:05.182Z,12.67
2018-10-11T05:58:43.465Z,12.23
2018-10-11T05:59:21.685Z,12.47
2018-10-11T05:59:59.799Z,13.23
2018-10-11T06:00:39.125Z,13.63
2018-10-11T06:01:17.187Z,12.33
2018-10-11T06:01:55.025Z,13.23
2018-10-11T06:02:33.147Z,13.70
2018-10-11T06:03:11.309Z,18.63
2018-10-11T06:03:50.000Z,12.93
2018-10-11T06:04:28.043Z,13.43
2018-10-11T06:05:06.070Z,13.80
2018-10-11T06:05:43.970Z,15.60
2018-10-11T06:06:21.949Z,14.17
2018-10-11T06:07:00.193Z,13.80
2018-10-11T06:07:38.248Z,17.17
2018-10-11T06:08:18.225Z,17.80
2018-10-11T06:08:57.029Z,15.40
2018-10-11T06:09:35.099Z,14.10
2018-10-11T06:10:13.092Z,13.33
2018-10-11T06:10:51.345Z,13.13
2018-10-11T06:11:29.992Z,17.80
2018-10-11T06:12:08.006Z,12.00
2018-10-11T06:12:46.396Z,11.90
2018-10-11T06:13:25.131Z,12.93
2018-10-11T06:14:03.100Z,12.43
2018-10-11T06:14:41.014Z,14.13
2018-10-11T06:15:18.944Z,12.67
2018-10-11T06:15:56.939Z,12.07
2018-10-11T06:16:34.794Z,11.50
2018-10-11T06:17:12.684Z,17.43
2018-10-11T06:17:50.610Z,11.87
2018-10-11T06:18:29.114Z,13.27
2018-10-11T06:19:07.102Z,12.57
2018-10-11T06:19:45.224Z,12.10
2018-10-11T06:20:23.177Z,11.50
2018-10-11T06:21:01.144Z,15.20
2018-10-11T06:21:39.285Z,16.83
2018-10-11T06:22:17.432Z,12.13
2018-10-11T06:22:55.755Z,11.90
2018-10-11T06:23:33.813Z,12.80
2018-10-11T06:24:12.027Z,14.33
2018-10-11T06:24:50.068Z,12.03
2018-10-11T06:25:28.068Z,13.50
2018-10-11T06:26:06.490Z,12.30
2018-10-11T06:26:44.682Z,11.87
2018-10-11T06:27:22.633Z,11.90
2018-10-11T06:28:00.828Z,13.07
2018-10-11T06:28:38.911Z,12.33
2018-10-11T06:29:16.769Z,15.53
2018-10-11T06:30:38.417Z,12.37
2018-10-11T06:31:16.697Z,12.77
2018-10-11T06:31:54.768Z,13.33
2018-10-11T06:32:32.961Z,11.40
2018-10-11T06:33:10.853Z,11.30
2018-10-11T06:33:48.860Z,12.37
2018-10-11T06:34:26.756Z,12.70
2018-10-11T06:35:05.185Z,12.70
2018-10-11T06:35:43.255Z,12.83
2018-10-11T06:36:21.378Z,16.30
2018-10-11T06:37:00.201Z,17.23
2018-10-11T06:37:38.188Z,17.93
2018-10-11T06:38:16.526Z,19.62
2018-10-11T06:38:55.102Z,12.23
2018-10-11T06:39:33.209Z,14.97
2018-10-11T06:40:11.349Z,10.93
2018-10-11T06:40:49.593Z,10.97
2018-10-11T06:41:27.801Z,14.43
2018-10-11T06:42:06.011Z,12.70
2018-10-11T06:42:44.498Z,13.10
2018-10-11T06:43:22.930Z,19.03
2018-10-11T06:44:01.285Z,12.17
2018-10-11T06:44:39.165Z,13.57
2018-10-11T06:45:18.050Z,12.53
2018-10-11T06:45:56.242Z,12.10
2018-10-11T06:46:34.272Z,12.40
2018-10-11T06:47:12.257Z,13.27
2018-10-11T06:47:53.411Z,22.00
2018-10-11T06:48:31.541Z,13.20
2018-10-11T06:49:09.712Z,12.77
2018-10-11T06:49:47.718Z,17.20
2018-10-11T06:50:25.785Z,13.60
2018-10-11T06:51:03.691Z,16.50
2018-10-11T06:51:41.727Z,16.23
2018-10-11T06:52:19.661Z,13.93
2018-10-11T06:52:57.729Z,13.30
2018-10-11T06:53:35.694Z,21.80
2018-10-11T06:54:13.629Z,14.33
2018-10-11T06:54:51.901Z,14.13
2018-10-11T06:55:29.856Z,14.60
2018-10-11T06:56:07.843Z,21.73
2018-10-11T06:56:45.854Z,14.97
2018-10-11T06:57:23.875Z,14.43
2018-10-11T06:58:01.823Z,21.17
2018-10-11T06:58:39.661Z,18.20
2018-10-11T06:59:17.608Z,13.70
2018-10-11T06:59:55.782Z,19.43
2018-10-11T07:00:33.696Z,14.67
2018-10-11T07:01:12.865Z,14.17
2018-10-11T07:01:50.969Z,13.77
2018-10-11T07:02:28.979Z,13.27
2018-10-11T07:03:07.126Z,14.53
2018-10-11T07:03:45.212Z,15.37
2018-10-11T07:04:23.058Z,16.47
2018-10-11T07:05:01.087Z,18.97
2018-10-11T07:05:38.957Z,13.80
2018-10-11T07:06:17.121Z,13.70
2018-10-11T07:06:55.050Z,15.97
2018-10-11T07:07:32.901Z,18.37
2018-10-11T07:08:10.743Z,21.63
2018-10-11T07:08:48.700Z,16.17
2018-10-11T07:09:26.605Z,23.83
2018-10-11T07:10:04.523Z,13.67
2018-10-11T07:10:42.502Z,16.30
2018-10-11T07:11:24.948Z,22.77
2018-10-11T07:12:02.988Z,12.47
2018-10-11T07:12:41.135Z,21.93
2018-10-11T07:13:19.016Z,15.10
2018-10-11T07:13:56.990Z,21.70
2018-10-11T07:14:34.893Z,16.83
2018-10-11T07:15:12.835Z,14.83
2018-10-11T07:15:50.744Z,18.50
2018-10-11T07:16:28.675Z,17.23
2018-10-11T07:17:06.533Z,14.27
2018-10-11T07:17:44.391Z,17.53
2018-10-11T07:18:22.291Z,17.63
2018-10-11T07:19:00.223Z,18.77
2018-10-11T07:19:39.400Z,15.70
2018-10-11T07:20:17.478Z,12.10
2018-10-11T07:20:55.409Z,13.23
2018-10-11T07:21:34.313Z,19.03
2018-10-11T07:22:12.109Z,13.97
2018-10-11T07:22:50.028Z,20.63
2018-10-11T07:23:27.919Z,17.27
2018-10-11T07:24:05.846Z,18.40
2018-10-11T07:24:43.671Z,14.40
2018-10-11T07:25:21.737Z,16.07
2018-10-11T07:25:59.695Z,17.93
2018-10-11T07:26:38.036Z,16.97
2018-10-11T07:27:15.938Z,14.90
2018-10-11T07:27:53.882Z,16.73
2018-10-11T07:28:31.720Z,17.07
2018-10-11T07:29:09.569Z,17.43
2018-10-11T07:29:47.522Z,20.20
2018-10-11T07:30:25.677Z,12.17
2018-10-11T07:31:03.582Z,17.67
2018-10-11T07:31:41.381Z,14.83
2018-10-11T07:32:19.240Z,18.17
2018-10-11T07:32:57.383Z,20.00
2018-10-11T07:33:35.388Z,12.63
2018-10-11T07:34:13.361Z,18.83
2018-10-11T07:34:51.327Z,9.03
2018-10-11T07:35:29.574Z,12.23
2018-10-11T07:36:07.683Z,12.13
2018-10-11T07:36:45.597Z,12.60
2018-10-11T07:37:23.468Z,8.73
2018-10-11T07:38:01.429Z,12.03
2018-10-11T07:38:39.376Z,17.73
2018-10-11T07:39:17.276Z,7.77
2018-10-11T07:39:55.138Z,9.80
2018-10-11T07:40:33.285Z,9.73
2018-10-11T07:41:11.716Z,15.97
2018-10-11T07:41:49.549Z,9.50
2018-10-11T07:42:27.466Z,11.50
2018-10-11T07:43:05.318Z,4.83
2018-10-11T07:43:43.260Z,8.07
2018-10-11T07:44:21.241Z,14.43
2018-10-11T07:44:59.121Z,7.47
2018-10-11T07:45:37.175Z,4.60
2018-10-11T07:46:15.089Z,8.53
2018-10-11T07:46:53.011Z,7.97
2018-10-11T07:47:30.874Z,6.93
2018-10-11T07:48:08.794Z,14.77
2018-10-11T07:48:46.879Z,6.83
2018-10-11T07:49:24.842Z,8.13
2018-10-11T07:50:02.764Z,8.13
2018-10-11T07:50:40.621Z,5.27
2018-10-11T07:51:18.552Z,5.17
2018-10-11T07:51:56.475Z,8.10
2018-10-11T07:52:34.417Z,5.07
2018-10-11T07:53:12.367Z,6.23
2018-10-11T07:53:50.230Z,10.17
2018-10-11T07:54:34.773Z,5.33
2018-10-11T07:55:12.654Z,11.20
2018-10-11T07:55:50.561Z,5.10
2018-10-11T07:56:28.392Z,8.20
2018-10-11T07:57:06.616Z,8.83
2018-10-11T07:57:44.484Z,10.47
2018-10-11T07:58:22.517Z,16.03
2018-10-11T07:59:01.104Z,11.47
2018-10-11T07:59:39.039Z,4.17
2018-10-11T08:00:16.983Z,12.50
2018-10-11T08:00:54.828Z,4.83
2018-10-11T08:01:33.346Z,8.43
2018-10-11T08:02:11.387Z,6.17
2018-10-11T08:02:49.229Z,5.40
2018-10-11T08:03:27.252Z,8.20
2018-10-11T08:04:05.346Z,5.43
2018-10-11T08:04:43.430Z,6.30
2018-10-11T08:05:21.301Z,10.67
2018-10-11T08:05:59.258Z,8.47
2018-10-11T08:06:37.213Z,5.10
2018-10-11T08:07:15.233Z,13.00
2018-10-11T08:07:53.346Z,4.70
2018-10-11T08:08:31.343Z,11.17
2018-10-11T08:09:10.794Z,7.30
2018-10-11T08:09:48.841Z,14.47
2018-10-11T08:10:26.772Z,9.43
2018-10-11T08:11:05.108Z,5.90
2018-10-11T08:11:42.999Z,11.23
2018-10-11T08:12:21.176Z,6.20
2018-10-11T08:12:59.114Z,8.47
2018-10-11T08:13:37.044Z,7.37
2018-10-11T08:14:15.163Z,10.60
2018-10-11T08:14:53.079Z,12.30
2018-10-11T08:15:31.077Z,6.60
2018-10-11T08:16:09.597Z,7.60
2018-10-11T08:16:47.667Z,9.77
2018-10-11T08:17:25.765Z,5.13
2018-10-11T08:18:03.865Z,5.00
2018-10-11T08:18:41.726Z,7.03
2018-10-11T08:19:19.999Z,7.07
2018-10-11T08:19:57.813Z,5.43
2018-10-11T08:20:35.890Z,9.40
2018-10-11T08:21:13.941Z,5.37
2018-10-11T08:21:52.097Z,12.50
2018-10-11T08:22:30.145Z,8.13
2018-10-11T08:23:09.008Z,9.77
2018-10-11T08:23:46.934Z,5.87